sensor_id;sensor_type;location;lat;lon;timestamp;P1;durP1;ratioP1;P2;durP2;ratioP2
11066;SDS011;29763;50.904;5.530;2023-06-14T00:01:01;7.40;;;6.70;;
11066;SDS011;29763;50.904;5.530;2023-06-14T00:03:29;7.47;;;6.68;;
11066;SDS011;29763;50.904;5.530;2023-06-14T00:05:57;7.35;;;6.65;;
11066;SDS011;29763;50.904;5.530;2023-06-14T00:08:24;8.13;;;6.80;;
11066;SDS011;29763;50.904;5.530;2023-06-14T00:10:50;7.72;;;6.90;;
11066;SDS011;29763;50.904;5.530;2023-06-14T00:13:16;7.60;;;6.82;;
11066;SDS011;29763;50.904;5.530;2023-06-14T00:15:42;8.35;;;6.38;;
11066;SDS011;29763;50.904;5.530;2023-06-14T00:18:13;7.65;;;6.88;;
11066;SDS011;29763;50.904;5.530;2023-06-14T00:20:42;7.68;;;6.82;;
11066;SDS011;29763;50.904;5.530;2023-06-14T00:23:19;7.07;;;6.38;;
11066;SDS011;29763;50.904;5.530;2023-06-14T00:25:47;99.25;;;8.98;;
11066;SDS011;29763;50.904;5.530;2023-06-14T00:28:14;396.95;;;35.00;;
11066;SDS011;29763;50.904;5.530;2023-06-14T00:30:40;158.82;;;16.92;;
11066;SDS011;29763;50.904;5.530;2023-06-14T00:33:13;7.25;;;6.65;;
11066;SDS011;29763;50.904;5.530;2023-06-14T00:35:50;7.30;;;6.60;;
11066;SDS011;29763;50.904;5.530;2023-06-14T00:38:18;8.55;;;7.18;;
11066;SDS011;29763;50.904;5.530;2023-06-14T00:40:48;7.53;;;6.82;;
11066;SDS011;29763;50.904;5.530;2023-06-14T00:43:18;7.63;;;6.80;;
11066;SDS011;29763;50.904;5.530;2023-06-14T00:45:59;8.32;;;6.65;;
11066;SDS011;29763;50.904;5.530;2023-06-14T00:48:27;7.93;;;6.93;;
11066;SDS011;29763;50.904;5.530;2023-06-14T00:51:01;8.48;;;7.38;;
11066;SDS011;29763;50.904;5.530;2023-06-14T00:53:29;8.48;;;7.68;;
11066;SDS011;29763;50.904;5.530;2023-06-14T00:55:59;7.85;;;7.15;;
11066;SDS011;29763;50.904;5.530;2023-06-14T00:58:25;7.35;;;6.65;;
11066;SDS011;29763;50.904;5.530;2023-06-14T01:00:53;7.72;;;6.88;;
11066;SDS011;29763;50.904;5.530;2023-06-14T01:03:25;7.25;;;6.65;;
11066;SDS011;29763;50.904;5.530;2023-06-14T01:05:56;7.25;;;6.55;;
11066;SDS011;29763;50.904;5.530;2023-06-14T01:09:03;7.80;;;7.07;;
11066;SDS011;29763;50.904;5.530;2023-06-14T01:11:59;7.45;;;6.75;;
11066;SDS011;29763;50.904;5.530;2023-06-14T01:14:51;9.35;;;7.57;;
11066;SDS011;29763;50.904;5.530;2023-06-14T01:17:20;7.22;;;6.63;;
11066;SDS011;29763;50.904;5.530;2023-06-14T01:19:50;8.57;;;7.65;;
11066;SDS011;29763;50.904;5.530;2023-06-14T01:22:25;8.05;;;7.25;;
11066;SDS011;29763;50.904;5.530;2023-06-14T01:24:53;7.40;;;6.70;;
11066;SDS011;29763;50.904;5.530;2023-06-14T01:27:23;7.75;;;7.03;;
11066;SDS011;29763;50.904;5.530;2023-06-14T01:29:54;7.88;;;7.13;;
11066;SDS011;29763;50.904;5.530;2023-06-14T01:32:26;7.95;;;7.20;;
11066;SDS011;29763;50.904;5.530;2023-06-14T01:35:00;8.13;;;7.43;;
11066;SDS011;29763;50.904;5.530;2023-06-14T01:37:29;7.25;;;6.65;;
11066;SDS011;29763;50.904;5.530;2023-06-14T01:40:23;8.43;;;6.95;;
11066;SDS011;29763;50.904;5.530;2023-06-14T01:42:52;7.95;;;7.15;;
11066;SDS011;29763;50.904;5.530;2023-06-14T01:45:18;8.10;;;7.38;;
11066;SDS011;29763;50.904;5.530;2023-06-14T01:47:45;8.40;;;7.50;;
11066;SDS011;29763;50.904;5.530;2023-06-14T01:50:12;8.07;;;7.35;;
11066;SDS011;29763;50.904;5.530;2023-06-14T01:52:41;8.55;;;7.63;;
11066;SDS011;29763;50.904;5.530;2023-06-14T01:55:13;7.65;;;6.97;;
11066;SDS011;29763;50.904;5.530;2023-06-14T01:57:40;8.77;;;7.45;;
11066;SDS011;29763;50.904;5.530;2023-06-14T02:00:14;9.40;;;8.05;;
11066;SDS011;29763;50.904;5.530;2023-06-14T02:02:43;10.18;;;7.75;;
11066;SDS011;29763;50.904;5.530;2023-06-14T02:05:09;9.48;;;7.68;;
11066;SDS011;29763;50.904;5.530;2023-06-14T02:07:35;8.30;;;7.60;;
11066;SDS011;29763;50.904;5.530;2023-06-14T02:10:02;8.32;;;7.63;;
11066;SDS011;29763;50.904;5.530;2023-06-14T02:12:28;9.35;;;8.25;;
11066;SDS011;29763;50.904;5.530;2023-06-14T02:14:53;8.15;;;7.25;;
11066;SDS011;29763;50.904;5.530;2023-06-14T02:17:22;8.48;;;7.68;;
11066;SDS011;29763;50.904;5.530;2023-06-14T02:19:48;11.50;;;7.70;;
11066;SDS011;29763;50.904;5.530;2023-06-14T02:22:16;8.00;;;7.22;;
11066;SDS011;29763;50.904;5.530;2023-06-14T02:24:49;8.40;;;7.60;;
11066;SDS011;29763;50.904;5.530;2023-06-14T02:27:16;10.95;;;7.70;;
11066;SDS011;29763;50.904;5.530;2023-06-14T02:29:43;8.30;;;7.50;;
11066;SDS011;29763;50.904;5.530;2023-06-14T02:32:10;8.32;;;7.43;;
11066;SDS011;29763;50.904;5.530;2023-06-14T02:34:38;9.70;;;7.95;;
11066;SDS011;29763;50.904;5.530;2023-06-14T02:37:07;8.15;;;7.35;;
11066;SDS011;29763;50.904;5.530;2023-06-14T02:39:35;8.65;;;7.75;;
11066;SDS011;29763;50.904;5.530;2023-06-14T02:42:02;8.50;;;7.55;;
11066;SDS011;29763;50.904;5.530;2023-06-14T02:44:28;8.77;;;7.90;;
11066;SDS011;29763;50.904;5.530;2023-06-14T02:46:54;8.43;;;7.65;;
11066;SDS011;29763;50.904;5.530;2023-06-14T02:49:21;9.05;;;7.93;;
11066;SDS011;29763;50.904;5.530;2023-06-14T02:51:47;10.77;;;7.90;;
11066;SDS011;29763;50.904;5.530;2023-06-14T02:54:15;9.20;;;8.30;;
11066;SDS011;29763;50.904;5.530;2023-06-14T02:56:47;13.88;;;8.65;;
11066;SDS011;29763;50.904;5.530;2023-06-14T02:59:13;9.25;;;8.10;;
11066;SDS011;29763;50.904;5.530;2023-06-14T03:01:41;10.18;;;8.30;;
11066;SDS011;29763;50.904;5.530;2023-06-14T03:04:10;8.90;;;8.00;;
11066;SDS011;29763;50.904;5.530;2023-06-14T03:06:40;8.65;;;7.70;;
11066;SDS011;29763;50.904;5.530;2023-06-14T03:09:15;9.30;;;8.15;;
11066;SDS011;29763;50.904;5.530;2023-06-14T03:11:41;9.00;;;7.82;;
11066;SDS011;29763;50.904;5.530;2023-06-14T03:14:10;8.05;;;7.32;;
11066;SDS011;29763;50.904;5.530;2023-06-14T03:16:39;9.68;;;7.80;;
11066;SDS011;29763;50.904;5.530;2023-06-14T03:19:09;9.05;;;7.75;;
11066;SDS011;29763;50.904;5.530;2023-06-14T03:21:39;9.20;;;8.00;;
11066;SDS011;29763;50.904;5.530;2023-06-14T03:24:09;8.48;;;7.78;;
11066;SDS011;29763;50.904;5.530;2023-06-14T03:26:35;8.95;;;8.15;;
11066;SDS011;29763;50.904;5.530;2023-06-14T03:29:02;8.73;;;7.82;;
11066;SDS011;29763;50.904;5.530;2023-06-14T03:31:29;9.00;;;7.88;;
11066;SDS011;29763;50.904;5.530;2023-06-14T03:33:58;8.93;;;8.13;;
11066;SDS011;29763;50.904;5.530;2023-06-14T03:36:32;9.60;;;8.60;;
11066;SDS011;29763;50.904;5.530;2023-06-14T03:38:59;9.95;;;8.52;;
11066;SDS011;29763;50.904;5.530;2023-06-14T03:41:29;9.32;;;8.13;;
11066;SDS011;29763;50.904;5.530;2023-06-14T03:43:57;10.38;;;9.27;;
11066;SDS011;29763;50.904;5.530;2023-06-14T03:46:28;10.43;;;8.15;;
11066;SDS011;29763;50.904;5.530;2023-06-14T03:48:53;9.75;;;8.63;;
11066;SDS011;29763;50.904;5.530;2023-06-14T03:51:22;9.48;;;8.23;;
11066;SDS011;29763;50.904;5.530;2023-06-14T03:53:50;9.38;;;8.38;;
11066;SDS011;29763;50.904;5.530;2023-06-14T03:56:21;8.60;;;7.78;;
11066;SDS011;29763;50.904;5.530;2023-06-14T03:58:49;9.10;;;7.93;;
11066;SDS011;29763;50.904;5.530;2023-06-14T04:01:22;9.43;;;8.32;;
11066;SDS011;29763;50.904;5.530;2023-06-14T04:03:53;9.30;;;8.43;;
11066;SDS011;29763;50.904;5.530;2023-06-14T04:06:19;9.13;;;8.15;;
11066;SDS011;29763;50.904;5.530;2023-06-14T04:08:45;9.25;;;8.25;;
11066;SDS011;29763;50.904;5.530;2023-06-14T04:11:16;9.25;;;8.45;;
11066;SDS011;29763;50.904;5.530;2023-06-14T04:13:44;8.98;;;8.18;;
11066;SDS011;29763;50.904;5.530;2023-06-14T04:16:16;9.25;;;8.20;;
11066;SDS011;29763;50.904;5.530;2023-06-14T04:18:44;9.05;;;8.20;;
11066;SDS011;29763;50.904;5.530;2023-06-14T04:21:19;9.23;;;8.30;;
11066;SDS011;29763;50.904;5.530;2023-06-14T04:23:52;13.32;;;9.00;;
11066;SDS011;29763;50.904;5.530;2023-06-14T04:26:20;14.75;;;9.10;;
11066;SDS011;29763;50.904;5.530;2023-06-14T04:28:55;9.57;;;8.57;;
11066;SDS011;29763;50.904;5.530;2023-06-14T04:31:27;11.23;;;8.23;;
11066;SDS011;29763;50.904;5.530;2023-06-14T04:34:11;9.18;;;8.27;;
11066;SDS011;29763;50.904;5.530;2023-06-14T04:36:46;12.65;;;8.45;;
11066;SDS011;29763;50.904;5.530;2023-06-14T04:39:21;11.52;;;8.30;;
11066;SDS011;29763;50.904;5.530;2023-06-14T04:41:47;10.57;;;8.30;;
11066;SDS011;29763;50.904;5.530;2023-06-14T04:44:18;9.00;;;8.02;;
11066;SDS011;29763;50.904;5.530;2023-06-14T04:47:11;9.50;;;8.00;;
11066;SDS011;29763;50.904;5.530;2023-06-14T04:49:43;11.38;;;8.63;;
11066;SDS011;29763;50.904;5.530;2023-06-14T04:52:15;8.73;;;7.93;;
11066;SDS011;29763;50.904;5.530;2023-06-14T04:54:52;9.02;;;8.13;;
11066;SDS011;29763;50.904;5.530;2023-06-14T04:57:19;10.18;;;7.57;;
11066;SDS011;29763;50.904;5.530;2023-06-14T04:59:53;10.60;;;8.30;;
11066;SDS011;29763;50.904;5.530;2023-06-14T05:02:21;9.10;;;8.23;;
11066;SDS011;29763;50.904;5.530;2023-06-14T05:04:52;9.32;;;8.40;;
11066;SDS011;29763;50.904;5.530;2023-06-14T05:07:29;9.55;;;8.05;;
11066;SDS011;29763;50.904;5.530;2023-06-14T05:09:56;9.80;;;8.52;;
11066;SDS011;29763;50.904;5.530;2023-06-14T05:12:23;9.60;;;8.60;;
11066;SDS011;29763;50.904;5.530;2023-06-14T05:14:59;9.20;;;8.35;;
11066;SDS011;29763;50.904;5.530;2023-06-14T05:17:26;9.05;;;8.13;;
11066;SDS011;29763;50.904;5.530;2023-06-14T05:19:55;9.40;;;8.45;;
11066;SDS011;29763;50.904;5.530;2023-06-14T05:22:31;9.40;;;7.75;;
11066;SDS011;29763;50.904;5.530;2023-06-14T05:25:02;8.82;;;7.93;;
11066;SDS011;29763;50.904;5.530;2023-06-14T05:27:33;9.32;;;8.40;;
11066;SDS011;29763;50.904;5.530;2023-06-14T05:30:02;9.13;;;8.20;;
11066;SDS011;29763;50.904;5.530;2023-06-14T05:32:34;8.45;;;7.65;;
11066;SDS011;29763;50.904;5.530;2023-06-14T05:35:17;10.50;;;8.25;;
11066;SDS011;29763;50.904;5.530;2023-06-14T05:37:47;9.13;;;8.10;;
11066;SDS011;29763;50.904;5.530;2023-06-14T05:40:18;8.60;;;7.80;;
11066;SDS011;29763;50.904;5.530;2023-06-14T05:42:52;9.88;;;8.65;;
11066;SDS011;29763;50.904;5.530;2023-06-14T05:45:19;9.07;;;8.13;;
11066;SDS011;29763;50.904;5.530;2023-06-14T05:47:49;9.85;;;8.20;;
11066;SDS011;29763;50.904;5.530;2023-06-14T05:50:19;9.00;;;7.50;;
11066;SDS011;29763;50.904;5.530;2023-06-14T05:52:46;8.55;;;7.75;;
11066;SDS011;29763;50.904;5.530;2023-06-14T05:55:12;9.50;;;8.48;;
11066;SDS011;29763;50.904;5.530;2023-06-14T05:57:41;8.75;;;7.85;;
11066;SDS011;29763;50.904;5.530;2023-06-14T06:00:07;9.00;;;7.95;;
11066;SDS011;29763;50.904;5.530;2023-06-14T06:02:44;9.15;;;7.88;;
11066;SDS011;29763;50.904;5.530;2023-06-14T06:05:12;9.32;;;8.13;;
11066;SDS011;29763;50.904;5.530;2023-06-14T06:07:42;8.48;;;7.45;;
11066;SDS011;29763;50.904;5.530;2023-06-14T06:10:34;9.88;;;7.88;;
11066;SDS011;29763;50.904;5.530;2023-06-14T06:13:03;9.80;;;8.10;;
11066;SDS011;29763;50.904;5.530;2023-06-14T06:15:51;9.40;;;7.97;;
11066;SDS011;29763;50.904;5.530;2023-06-14T06:18:30;9.40;;;7.80;;
11066;SDS011;29763;50.904;5.530;2023-06-14T06:20:58;8.57;;;7.78;;
11066;SDS011;29763;50.904;5.530;2023-06-14T06:23:31;8.48;;;7.20;;
11066;SDS011;29763;50.904;5.530;2023-06-14T06:26:00;8.02;;;7.20;;
11066;SDS011;29763;50.904;5.530;2023-06-14T06:28:32;9.77;;;8.10;;
11066;SDS011;29763;50.904;5.530;2023-06-14T06:31:02;8.18;;;7.38;;
11066;SDS011;29763;50.904;5.530;2023-06-14T06:33:33;8.60;;;7.50;;
11066;SDS011;29763;50.904;5.530;2023-06-14T06:36:08;7.93;;;7.15;;
11066;SDS011;29763;50.904;5.530;2023-06-14T06:38:38;9.35;;;7.45;;
11066;SDS011;29763;50.904;5.530;2023-06-14T06:41:15;8.30;;;7.38;;
11066;SDS011;29763;50.904;5.530;2023-06-14T06:43:42;7.93;;;7.22;;
11066;SDS011;29763;50.904;5.530;2023-06-14T06:46:11;7.90;;;7.10;;
11066;SDS011;29763;50.904;5.530;2023-06-14T06:48:40;7.43;;;6.57;;
11066;SDS011;29763;50.904;5.530;2023-06-14T06:51:07;8.90;;;6.80;;
11066;SDS011;29763;50.904;5.530;2023-06-14T06:56:41;8.38;;;7.05;;
11066;SDS011;29763;50.904;5.530;2023-06-14T06:59:09;7.68;;;6.97;;
11066;SDS011;29763;50.904;5.530;2023-06-14T07:01:48;7.68;;;6.88;;
11066;SDS011;29763;50.904;5.530;2023-06-14T07:07:37;8.43;;;7.50;;
11066;SDS011;29763;50.904;5.530;2023-06-14T07:10:03;8.07;;;7.03;;
11066;SDS011;29763;50.904;5.530;2023-06-14T07:12:43;9.10;;;6.63;;
11066;SDS011;29763;50.904;5.530;2023-06-14T07:15:15;8.77;;;6.57;;
11066;SDS011;29763;50.904;5.530;2023-06-14T07:20:44;7.22;;;6.60;;
11066;SDS011;29763;50.904;5.530;2023-06-14T07:23:27;8.27;;;6.55;;
11066;SDS011;29763;50.904;5.530;2023-06-14T07:29:15;7.03;;;6.25;;
11066;SDS011;29763;50.904;5.530;2023-06-14T07:32:03;7.20;;;6.35;;
11066;SDS011;29763;50.904;5.530;2023-06-14T07:34:36;7.10;;;6.40;;
11066;SDS011;29763;50.904;5.530;2023-06-14T07:37:17;7.25;;;5.90;;
11066;SDS011;29763;50.904;5.530;2023-06-14T07:39:48;6.85;;;5.88;;
11066;SDS011;29763;50.904;5.530;2023-06-14T07:42:14;7.15;;;5.97;;
11066;SDS011;29763;50.904;5.530;2023-06-14T07:44:42;6.57;;;5.97;;
11066;SDS011;29763;50.904;5.530;2023-06-14T07:47:11;6.53;;;5.93;;
11066;SDS011;29763;50.904;5.530;2023-06-14T07:49:42;6.72;;;5.72;;
11066;SDS011;29763;50.904;5.530;2023-06-14T07:52:09;7.53;;;5.78;;
11066;SDS011;29763;50.904;5.530;2023-06-14T07:54:45;7.38;;;6.10;;
11066;SDS011;29763;50.904;5.530;2023-06-14T07:57:13;7.97;;;5.82;;
11066;SDS011;29763;50.904;5.530;2023-06-14T07:59:48;9.38;;;5.95;;
11066;SDS011;29763;50.904;5.530;2023-06-14T08:02:18;8.65;;;5.65;;
11066;SDS011;29763;50.904;5.530;2023-06-14T08:04:43;8.05;;;6.15;;
11066;SDS011;29763;50.904;5.530;2023-06-14T08:07:14;8.32;;;5.82;;
11066;SDS011;29763;50.904;5.530;2023-06-14T08:09:40;7.57;;;5.95;;
11066;SDS011;29763;50.904;5.530;2023-06-14T08:12:10;7.57;;;5.57;;
11066;SDS011;29763;50.904;5.530;2023-06-14T08:14:38;9.73;;;5.85;;
11066;SDS011;29763;50.904;5.530;2023-06-14T08:17:14;7.85;;;5.70;;
11066;SDS011;29763;50.904;5.530;2023-06-14T08:19:49;9.10;;;5.85;;
11066;SDS011;29763;50.904;5.530;2023-06-14T08:22:25;8.05;;;5.72;;
11066;SDS011;29763;50.904;5.530;2023-06-14T08:25:00;9.38;;;5.75;;
11066;SDS011;29763;50.904;5.530;2023-06-14T08:27:32;7.72;;;5.60;;
11066;SDS011;29763;50.904;5.530;2023-06-14T08:29:59;9.13;;;5.43;;
11066;SDS011;29763;50.904;5.530;2023-06-14T08:32:35;5.93;;;5.32;;
11066;SDS011;29763;50.904;5.530;2023-06-14T08:35:03;8.85;;;5.65;;
11066;SDS011;29763;50.904;5.530;2023-06-14T08:37:33;8.75;;;5.28;;
11066;SDS011;29763;50.904;5.530;2023-06-14T08:40:19;7.38;;;6.20;;
11066;SDS011;29763;50.904;5.530;2023-06-14T08:42:57;8.65;;;5.40;;
11066;SDS011;29763;50.904;5.530;2023-06-14T08:45:32;7.35;;;5.03;;
11066;SDS011;29763;50.904;5.530;2023-06-14T08:47:59;5.43;;;4.72;;
11066;SDS011;29763;50.904;5.530;2023-06-14T08:50:43;7.20;;;5.43;;
11066;SDS011;29763;50.904;5.530;2023-06-14T08:53:15;8.55;;;5.20;;
11066;SDS011;29763;50.904;5.530;2023-06-14T08:55:47;6.20;;;5.10;;
11066;SDS011;29763;50.904;5.530;2023-06-14T08:58:13;5.43;;;4.93;;
11066;SDS011;29763;50.904;5.530;2023-06-14T09:00:40;5.50;;;4.50;;
11066;SDS011;29763;50.904;5.530;2023-06-14T09:03:25;7.70;;;4.80;;
11066;SDS011;29763;50.904;5.530;2023-06-14T09:06:05;5.03;;;4.63;;
11066;SDS011;29763;50.904;5.530;2023-06-14T09:08:35;5.65;;;5.07;;
11066;SDS011;29763;50.904;5.530;2023-06-14T09:11:06;8.07;;;4.72;;
11066;SDS011;29763;50.904;5.530;2023-06-14T09:13:44;6.97;;;4.68;;
11066;SDS011;29763;50.904;5.530;2023-06-14T09:16:14;7.63;;;4.70;;
11066;SDS011;29763;50.904;5.530;2023-06-14T09:18:46;7.72;;;4.57;;
11066;SDS011;29763;50.904;5.530;2023-06-14T09:21:16;5.50;;;4.47;;
11066;SDS011;29763;50.904;5.530;2023-06-14T09:23:47;7.05;;;4.25;;
11066;SDS011;29763;50.904;5.530;2023-06-14T09:26:18;5.55;;;4.15;;
11066;SDS011;29763;50.904;5.530;2023-06-14T09:28:49;5.65;;;4.13;;
11066;SDS011;29763;50.904;5.530;2023-06-14T09:31:19;4.68;;;3.95;;
11066;SDS011;29763;50.904;5.530;2023-06-14T09:34:15;8.15;;;4.03;;
11066;SDS011;29763;50.904;5.530;2023-06-14T09:36:56;5.85;;;3.85;;
11066;SDS011;29763;50.904;5.530;2023-06-14T09:39:31;7.47;;;4.13;;
11066;SDS011;29763;50.904;5.530;2023-06-14T09:41:59;6.13;;;4.53;;
11066;SDS011;29763;50.904;5.530;2023-06-14T09:44:43;6.30;;;3.92;;
11066;SDS011;29763;50.904;5.530;2023-06-14T09:47:15;4.07;;;3.70;;
11066;SDS011;29763;50.904;5.530;2023-06-14T09:49:42;5.10;;;3.60;;
11066;SDS011;29763;50.904;5.530;2023-06-14T09:52:17;5.03;;;3.50;;
11066;SDS011;29763;50.904;5.530;2023-06-14T09:54:58;4.43;;;3.20;;
11066;SDS011;29763;50.904;5.530;2023-06-14T09:57:38;4.18;;;3.47;;
11066;SDS011;29763;50.904;5.530;2023-06-14T10:00:10;4.70;;;3.50;;
11066;SDS011;29763;50.904;5.530;2023-06-14T10:02:40;5.25;;;3.50;;
11066;SDS011;29763;50.904;5.530;2023-06-14T10:05:16;6.05;;;3.75;;
11066;SDS011;29763;50.904;5.530;2023-06-14T10:08:04;4.97;;;3.58;;
11066;SDS011;29763;50.904;5.530;2023-06-14T10:10:39;3.50;;;3.20;;
11066;SDS011;29763;50.904;5.530;2023-06-14T10:13:08;5.18;;;3.70;;
11066;SDS011;29763;50.904;5.530;2023-06-14T10:19:15;5.50;;;3.80;;
11066;SDS011;29763;50.904;5.530;2023-06-14T10:24:31;5.60;;;3.45;;
11066;SDS011;29763;50.904;5.530;2023-06-14T10:27:07;4.40;;;3.60;;
11066;SDS011;29763;50.904;5.530;2023-06-14T10:33:02;6.88;;;3.60;;
11066;SDS011;29763;50.904;5.530;2023-06-14T10:35:32;3.85;;;3.38;;
11066;SDS011;29763;50.904;5.530;2023-06-14T10:38:07;6.75;;;3.40;;
11066;SDS011;29763;50.904;5.530;2023-06-14T10:40:36;5.82;;;3.30;;
11066;SDS011;29763;50.904;5.530;2023-06-14T10:43:21;4.40;;;4.00;;
11066;SDS011;29763;50.904;5.530;2023-06-14T10:48:56;5.20;;;3.17;;
11066;SDS011;29763;50.904;5.530;2023-06-14T10:51:29;5.10;;;3.47;;
11066;SDS011;29763;50.904;5.530;2023-06-14T10:54:15;3.60;;;3.30;;
11066;SDS011;29763;50.904;5.530;2023-06-14T10:56:47;3.63;;;3.40;;
11066;SDS011;29763;50.904;5.530;2023-06-14T10:59:16;5.57;;;3.70;;
11066;SDS011;29763;50.904;5.530;2023-06-14T11:04:46;5.20;;;3.33;;
11066;SDS011;29763;50.904;5.530;2023-06-14T11:10:46;5.65;;;3.33;;
11066;SDS011;29763;50.904;5.530;2023-06-14T11:13:19;3.63;;;2.88;;
11066;SDS011;29763;50.904;5.530;2023-06-14T11:15:47;5.55;;;3.10;;
11066;SDS011;29763;50.904;5.530;2023-06-14T11:18:25;2.97;;;2.65;;
11066;SDS011;29763;50.904;5.530;2023-06-14T11:20:54;4.03;;;2.70;;
11066;SDS011;29763;50.904;5.530;2023-06-14T11:23:26;3.75;;;2.65;;
11066;SDS011;29763;50.904;5.530;2023-06-14T11:25:53;4.97;;;2.63;;
11066;SDS011;29763;50.904;5.530;2023-06-14T11:28:21;3.10;;;2.70;;
11066;SDS011;29763;50.904;5.530;2023-06-14T11:31:09;3.25;;;2.60;;
11066;SDS011;29763;50.904;5.530;2023-06-14T11:33:40;4.72;;;2.40;;
11066;SDS011;29763;50.904;5.530;2023-06-14T11:36:07;3.05;;;2.30;;
11066;SDS011;29763;50.904;5.530;2023-06-14T11:38:57;3.08;;;2.25;;
11066;SDS011;29763;50.904;5.530;2023-06-14T11:41:31;2.30;;;2.10;;
11066;SDS011;29763;50.904;5.530;2023-06-14T11:44:14;2.28;;;2.08;;
11066;SDS011;29763;50.904;5.530;2023-06-14T11:46:56;2.45;;;2.15;;
11066;SDS011;29763;50.904;5.530;2023-06-14T11:49:35;2.47;;;2.28;;
11066;SDS011;29763;50.904;5.530;2023-06-14T11:52:02;2.65;;;2.33;;
11066;SDS011;29763;50.904;5.530;2023-06-14T11:54:44;2.53;;;2.17;;
11066;SDS011;29763;50.904;5.530;2023-06-14T11:57:23;2.60;;;2.40;;
11066;SDS011;29763;50.904;5.530;2023-06-14T12:00:06;2.03;;;1.92;;
11066;SDS011;29763;50.904;5.530;2023-06-14T12:08:57;4.95;;;2.85;;
11066;SDS011;29763;50.904;5.530;2023-06-14T12:11:40;3.90;;;2.50;;
11066;SDS011;29763;50.904;5.530;2023-06-14T12:14:15;2.72;;;2.47;;
11066;SDS011;29763;50.904;5.530;2023-06-14T12:16:45;2.92;;;2.63;;
11066;SDS011;29763;50.904;5.530;2023-06-14T12:19:18;2.88;;;2.20;;
11066;SDS011;29763;50.904;5.530;2023-06-14T12:21:51;6.28;;;2.50;;
11066;SDS011;29763;50.904;5.530;2023-06-14T12:24:48;3.40;;;2.40;;
11066;SDS011;29763;50.904;5.530;2023-06-14T12:27:21;3.83;;;2.70;;
11066;SDS011;29763;50.904;5.530;2023-06-14T12:29:58;4.28;;;2.70;;
11066;SDS011;29763;50.904;5.530;2023-06-14T12:32:27;3.20;;;2.40;;
11066;SDS011;29763;50.904;5.530;2023-06-14T12:34:55;2.78;;;2.45;;
11066;SDS011;29763;50.904;5.530;2023-06-14T12:37:28;3.42;;;2.58;;
11066;SDS011;29763;50.904;5.530;2023-06-14T12:40:04;6.43;;;2.70;;
11066;SDS011;29763;50.904;5.530;2023-06-14T12:43:08;3.20;;;2.28;;
11066;SDS011;29763;50.904;5.530;2023-06-14T12:45:35;3.83;;;2.30;;
11066;SDS011;29763;50.904;5.530;2023-06-14T12:48:01;4.20;;;2.38;;
11066;SDS011;29763;50.904;5.530;2023-06-14T12:50:27;4.47;;;2.70;;
11066;SDS011;29763;50.904;5.530;2023-06-14T12:52:55;6.53;;;2.70;;
11066;SDS011;29763;50.904;5.530;2023-06-14T12:55:25;3.55;;;2.78;;
11066;SDS011;29763;50.904;5.530;2023-06-14T12:57:51;3.30;;;2.63;;
11066;SDS011;29763;50.904;5.530;2023-06-14T13:00:21;3.28;;;2.60;;
11066;SDS011;29763;50.904;5.530;2023-06-14T13:02:59;4.45;;;2.72;;
11066;SDS011;29763;50.904;5.530;2023-06-14T13:05:38;5.10;;;2.78;;
11066;SDS011;29763;50.904;5.530;2023-06-14T13:08:14;6.03;;;2.60;;
11066;SDS011;29763;50.904;5.530;2023-06-14T13:10:39;6.13;;;2.72;;
11066;SDS011;29763;50.904;5.530;2023-06-14T13:13:32;6.72;;;2.80;;
11066;SDS011;29763;50.904;5.530;2023-06-14T13:16:03;2.78;;;2.53;;
11066;SDS011;29763;50.904;5.530;2023-06-14T13:18:39;5.95;;;2.83;;
11066;SDS011;29763;50.904;5.530;2023-06-14T13:21:08;4.75;;;2.80;;
11066;SDS011;29763;50.904;5.530;2023-06-14T13:23:37;4.13;;;2.70;;
11066;SDS011;29763;50.904;5.530;2023-06-14T13:26:11;3.55;;;2.72;;
11066;SDS011;29763;50.904;5.530;2023-06-14T13:28:45;4.53;;;2.75;;
11066;SDS011;29763;50.904;5.530;2023-06-14T13:31:23;3.03;;;2.80;;
11066;SDS011;29763;50.904;5.530;2023-06-14T13:33:48;3.90;;;2.83;;
11066;SDS011;29763;50.904;5.530;2023-06-14T13:36:39;6.63;;;3.10;;
11066;SDS011;29763;50.904;5.530;2023-06-14T13:39:09;5.40;;;2.80;;
11066;SDS011;29763;50.904;5.530;2023-06-14T13:41:41;4.78;;;2.92;;
11066;SDS011;29763;50.904;5.530;2023-06-14T13:44:12;5.47;;;2.92;;
11066;SDS011;29763;50.904;5.530;2023-06-14T13:46:40;3.75;;;2.60;;
11066;SDS011;29763;50.904;5.530;2023-06-14T13:49:12;4.65;;;2.88;;
11066;SDS011;29763;50.904;5.530;2023-06-14T13:51:44;7.95;;;2.70;;
11066;SDS011;29763;50.904;5.530;2023-06-14T13:54:18;6.70;;;2.90;;
11066;SDS011;29763;50.904;5.530;2023-06-14T13:56:48;6.05;;;2.47;;
11066;SDS011;29763;50.904;5.530;2023-06-14T13:59:29;4.40;;;2.33;;
11066;SDS011;29763;50.904;5.530;2023-06-14T14:02:00;5.05;;;2.28;;
11066;SDS011;29763;50.904;5.530;2023-06-14T14:04:33;5.00;;;2.55;;
11066;SDS011;29763;50.904;5.530;2023-06-14T14:07:19;3.67;;;2.72;;
11066;SDS011;29763;50.904;5.530;2023-06-14T14:09:56;3.72;;;2.67;;
11066;SDS011;29763;50.904;5.530;2023-06-14T14:12:22;3.92;;;2.33;;
11066;SDS011;29763;50.904;5.530;2023-06-14T14:14:51;5.22;;;2.50;;
11066;SDS011;29763;50.904;5.530;2023-06-14T14:17:39;3.05;;;2.35;;
11066;SDS011;29763;50.904;5.530;2023-06-14T14:20:19;4.78;;;2.70;;
11066;SDS011;29763;50.904;5.530;2023-06-14T14:23:00;3.28;;;2.33;;
11066;SDS011;29763;50.904;5.530;2023-06-14T14:25:49;2.70;;;2.30;;
11066;SDS011;29763;50.904;5.530;2023-06-14T14:28:21;2.47;;;2.28;;
11066;SDS011;29763;50.904;5.530;2023-06-14T14:30:59;2.95;;;2.35;;
11066;SDS011;29763;50.904;5.530;2023-06-14T14:33:32;3.13;;;2.20;;
11066;SDS011;29763;50.904;5.530;2023-06-14T14:36:01;3.58;;;2.22;;
11066;SDS011;29763;50.904;5.530;2023-06-14T14:41:35;3.08;;;2.00;;
11066;SDS011;29763;50.904;5.530;2023-06-14T14:44:05;4.03;;;2.30;;
11066;SDS011;29763;50.904;5.530;2023-06-14T14:46:57;3.20;;;2.30;;
11066;SDS011;29763;50.904;5.530;2023-06-14T14:49:33;2.33;;;2.00;;
11066;SDS011;29763;50.904;5.530;2023-06-14T14:52:14;2.28;;;2.13;;
11066;SDS011;29763;50.904;5.530;2023-06-14T14:54:41;2.38;;;2.20;;
11066;SDS011;29763;50.904;5.530;2023-06-14T14:57:14;4.18;;;2.20;;
11066;SDS011;29763;50.904;5.530;2023-06-14T14:59:52;2.50;;;2.05;;
11066;SDS011;29763;50.904;5.530;2023-06-14T15:02:24;2.53;;;2.05;;
11066;SDS011;29763;50.904;5.530;2023-06-14T15:04:57;4.10;;;2.20;;
11066;SDS011;29763;50.904;5.530;2023-06-14T15:07:27;3.58;;;2.25;;
11066;SDS011;29763;50.904;5.530;2023-06-14T15:10:02;3.03;;;2.13;;
11066;SDS011;29763;50.904;5.530;2023-06-14T15:12:37;3.05;;;2.30;;
11066;SDS011;29763;50.904;5.530;2023-06-14T15:15:06;4.25;;;2.50;;
11066;SDS011;29763;50.904;5.530;2023-06-14T15:17:32;2.70;;;2.25;;
11066;SDS011;29763;50.904;5.530;2023-06-14T15:20:04;3.00;;;2.30;;
11066;SDS011;29763;50.904;5.530;2023-06-14T15:23:14;3.15;;;2.40;;
11066;SDS011;29763;50.904;5.530;2023-06-14T15:25:47;3.05;;;2.40;;
11066;SDS011;29763;50.904;5.530;2023-06-14T15:28:24;4.07;;;2.53;;
11066;SDS011;29763;50.904;5.530;2023-06-14T15:31:12;2.97;;;2.67;;
11066;SDS011;29763;50.904;5.530;2023-06-14T15:33:54;5.25;;;2.90;;
11066;SDS011;29763;50.904;5.530;2023-06-14T15:36:29;3.42;;;2.50;;
11066;SDS011;29763;50.904;5.530;2023-06-14T15:39:04;3.10;;;2.58;;
11066;SDS011;29763;50.904;5.530;2023-06-14T15:41:41;3.67;;;2.40;;
11066;SDS011;29763;50.904;5.530;2023-06-14T15:44:19;5.72;;;2.55;;
11066;SDS011;29763;50.904;5.530;2023-06-14T15:47:03;4.22;;;2.60;;
11066;SDS011;29763;50.904;5.530;2023-06-14T15:50:02;3.67;;;2.63;;
11066;SDS011;29763;50.904;5.530;2023-06-14T15:52:38;3.00;;;2.65;;
11066;SDS011;29763;50.904;5.530;2023-06-14T15:55:07;3.72;;;2.70;;
11066;SDS011;29763;50.904;5.530;2023-06-14T15:58:06;3.05;;;2.75;;
11066;SDS011;29763;50.904;5.530;2023-06-14T16:00:49;3.00;;;2.65;;
11066;SDS011;29763;50.904;5.530;2023-06-14T16:03:27;3.92;;;2.80;;